Max, North Dakota
Current Conditions -  °F | °C
As of 11:54 PM on Sunday 25 Jan 2015 (Local Time) from KMOT Reporting Station
Clear Clear  
Wind Chill: 31°   Ceiling: Unl
Heat Index: 40°   Visibility: 10mi
Dew Point: 32°   Wind: 18mph
Humidity: 73%   Direction: 270°W
Pressure: 29.72"   Gusts: NA
Location:  47.82°N, 101.3°W
Report Text: KMOT 260554Z AUTO 27016KT 10SM CLR 04/00 A2972 RMK AO2 SLP082 T00440000 10044 20017 400441050 53003
Loading
Personal Weather Stations






























Interactive Weather Map New forecast layout! Learn more

10-Day Weather Forecast

Advertisements
Track Severe Weather on mobile